sensor_id;sensor_type;location;lat;lon;timestamp;temperature;humidity
22161;DHT22;49035;48.812;11.762;2023-08-12T00:01:03;13.00;99.90
22161;DHT22;49035;48.812;11.762;2023-08-12T00:03:29;13.10;99.90
22161;DHT22;49035;48.812;11.762;2023-08-12T00:05:54;13.20;99.90
22161;DHT22;49035;48.812;11.762;2023-08-12T00:08:22;13.20;99.90
22161;DHT22;49035;48.812;11.762;2023-08-12T00:10:47;13.40;99.90
22161;DHT22;49035;48.812;11.762;2023-08-12T00:13:13;13.50;99.90
22161;DHT22;49035;48.812;11.762;2023-08-12T00:15:43;13.80;99.90
22161;DHT22;49035;48.812;11.762;2023-08-12T00:18:08;14.00;99.90
22161;DHT22;49035;48.812;11.762;2023-08-12T00:20:34;14.00;99.90
22161;DHT22;49035;48.812;11.762;2023-08-12T00:23:00;14.10;99.90
22161;DHT22;49035;48.812;11.762;2023-08-12T00:25:25;14.10;99.90
22161;DHT22;49035;48.812;11.762;2023-08-12T00:27:51;14.00;99.90
22161;DHT22;49035;48.812;11.762;2023-08-12T00:30:17;13.80;99.90
22161;DHT22;49035;48.812;11.762;2023-08-12T00:32:42;13.60;99.90
22161;DHT22;49035;48.812;11.762;2023-08-12T00:35:08;13.60;99.90
22161;DHT22;49035;48.812;11.762;2023-08-12T00:37:34;13.40;99.90
22161;DHT22;49035;48.812;11.762;2023-08-12T00:40:00;13.30;99.90
22161;DHT22;49035;48.812;11.762;2023-08-12T00:42:25;13.20;99.90
22161;DHT22;49035;48.812;11.762;2023-08-12T00:44:51;13.20;99.90
22161;DHT22;49035;48.812;11.762;2023-08-12T00:47:17;13.20;99.90
22161;DHT22;49035;48.812;11.762;2023-08-12T00:49:42;13.30;99.90
22161;DHT22;49035;48.812;11.762;2023-08-12T00:52:12;13.40;99.90
22161;DHT22;49035;48.812;11.762;2023-08-12T00:54:38;13.50;99.90
22161;DHT22;49035;48.812;11.762;2023-08-12T00:57:04;13.70;99.90
22161;DHT22;49035;48.812;11.762;2023-08-12T00:59:32;13.60;99.90
22161;DHT22;49035;48.812;11.762;2023-08-12T01:01:57;13.50;99.90
22161;DHT22;49035;48.812;11.762;2023-08-12T01:04:23;13.50;99.90
22161;DHT22;49035;48.812;11.762;2023-08-12T01:06:49;13.50;99.90
22161;DHT22;49035;48.812;11.762;2023-08-12T01:09:14;13.40;99.90
22161;DHT22;49035;48.812;11.762;2023-08-12T01:17:17;13.10;99.90
22161;DHT22;49035;48.812;11.762;2023-08-12T01:19:43;13.10;99.90
22161;DHT22;49035;48.812;11.762;2023-08-12T01:22:11;13.10;99.90
22161;DHT22;49035;48.812;11.762;2023-08-12T01:24:41;12.90;99.90
22161;DHT22;49035;48.812;11.762;2023-08-12T01:27:09;12.70;99.90
22161;DHT22;49035;48.812;11.762;2023-08-12T01:29:39;12.60;99.90
22161;DHT22;49035;48.812;11.762;2023-08-12T01:32:23;12.60;99.90
22161;DHT22;49035;48.812;11.762;2023-08-12T01:34:57;12.50;99.90
22161;DHT22;49035;48.812;11.762;2023-08-12T01:37:26;12.40;99.90
22161;DHT22;49035;48.812;11.762;2023-08-12T01:39:54;12.40;99.90
22161;DHT22;49035;48.812;11.762;2023-08-12T01:42:21;12.30;99.90
22161;DHT22;49035;48.812;11.762;2023-08-12T01:44:46;12.30;99.90
22161;DHT22;49035;48.812;11.762;2023-08-12T01:47:13;12.40;99.90
22161;DHT22;49035;48.812;11.762;2023-08-12T01:49:39;12.40;99.90
22161;DHT22;49035;48.812;11.762;2023-08-12T01:52:04;12.30;99.90
22161;DHT22;49035;48.812;11.762;2023-08-12T01:54:30;12.30;99.90
22161;DHT22;49035;48.812;11.762;2023-08-12T01:57:01;12.20;99.90
22161;DHT22;49035;48.812;11.762;2023-08-12T01:59:27;12.20;99.90
22161;DHT22;49035;48.812;11.762;2023-08-12T02:01:52;12.10;99.90
22161;DHT22;49035;48.812;11.762;2023-08-12T02:04:18;12.00;99.90
22161;DHT22;49035;48.812;11.762;2023-08-12T02:06:43;12.00;99.90
22161;DHT22;49035;48.812;11.762;2023-08-12T02:09:09;11.90;99.90
22161;DHT22;49035;48.812;11.762;2023-08-12T02:11:35;12.00;99.90
22161;DHT22;49035;48.812;11.762;2023-08-12T02:14:00;12.00;99.90
22161;DHT22;49035;48.812;11.762;2023-08-12T02:16:26;12.00;99.90
22161;DHT22;49035;48.812;11.762;2023-08-12T02:18:51;12.00;99.90
22161;DHT22;49035;48.812;11.762;2023-08-12T02:21:17;12.00;99.90
22161;DHT22;49035;48.812;11.762;2023-08-12T02:23:42;11.90;99.90
22161;DHT22;49035;48.812;11.762;2023-08-12T02:26:09;11.80;99.90
22161;DHT22;49035;48.812;11.762;2023-08-12T02:28:35;11.90;99.90
22161;DHT22;49035;48.812;11.762;2023-08-12T02:31:01;12.00;99.90
22161;DHT22;49035;48.812;11.762;2023-08-12T02:33:27;12.00;99.90
22161;DHT22;49035;48.812;11.762;2023-08-12T02:35:53;11.90;99.90
22161;DHT22;49035;48.812;11.762;2023-08-12T02:38:20;11.80;99.90
22161;DHT22;49035;48.812;11.762;2023-08-12T02:40:48;11.80;99.90
22161;DHT22;49035;48.812;11.762;2023-08-12T02:43:14;11.90;99.90
22161;DHT22;49035;48.812;11.762;2023-08-12T02:45:40;11.90;99.90
22161;DHT22;49035;48.812;11.762;2023-08-12T02:48:05;11.80;99.90
22161;DHT22;49035;48.812;11.762;2023-08-12T02:50:31;11.80;99.90
22161;DHT22;49035;48.812;11.762;2023-08-12T02:52:57;11.80;99.90
22161;DHT22;49035;48.812;11.762;2023-08-12T02:55:22;11.80;99.90
22161;DHT22;49035;48.812;11.762;2023-08-12T02:57:48;11.80;99.90
22161;DHT22;49035;48.812;11.762;2023-08-12T03:00:14;11.70;99.90
22161;DHT22;49035;48.812;11.762;2023-08-12T03:02:42;11.50;99.90
22161;DHT22;49035;48.812;11.762;2023-08-12T03:05:08;11.40;99.90
22161;DHT22;49035;48.812;11.762;2023-08-12T03:07:34;11.40;99.90
22161;DHT22;49035;48.812;11.762;2023-08-12T03:09:59;11.40;99.90
22161;DHT22;49035;48.812;11.762;2023-08-12T03:12:25;11.30;99.90
22161;DHT22;49035;48.812;11.762;2023-08-12T03:14:50;11.30;99.90
22161;DHT22;49035;48.812;11.762;2023-08-12T03:17:16;11.30;99.90
22161;DHT22;49035;48.812;11.762;2023-08-12T03:19:42;11.30;99.90
22161;DHT22;49035;48.812;11.762;2023-08-12T03:22:07;11.40;99.90
22161;DHT22;49035;48.812;11.762;2023-08-12T03:24:33;11.40;99.90
22161;DHT22;49035;48.812;11.762;2023-08-12T03:26:59;11.50;99.90
22161;DHT22;49035;48.812;11.762;2023-08-12T03:29:24;11.40;99.90
22161;DHT22;49035;48.812;11.762;2023-08-12T03:31:50;11.30;99.90
22161;DHT22;49035;48.812;11.762;2023-08-12T03:34:16;11.20;99.90
22161;DHT22;49035;48.812;11.762;2023-08-12T03:36:42;11.30;99.90
22161;DHT22;49035;48.812;11.762;2023-08-12T03:39:08;11.40;99.90
22161;DHT22;49035;48.812;11.762;2023-08-12T03:41:33;11.40;99.90
22161;DHT22;49035;48.812;11.762;2023-08-12T03:43:59;11.40;99.90
22161;DHT22;49035;48.812;11.762;2023-08-12T03:46:24;11.30;99.90
22161;DHT22;49035;48.812;11.762;2023-08-12T03:48:50;11.20;99.90
22161;DHT22;49035;48.812;11.762;2023-08-12T03:51:16;11.10;99.90
22161;DHT22;49035;48.812;11.762;2023-08-12T03:53:41;11.00;99.90
22161;DHT22;49035;48.812;11.762;2023-08-12T03:56:07;10.90;99.90
22161;DHT22;49035;48.812;11.762;2023-08-12T03:58:33;10.90;99.90
22161;DHT22;49035;48.812;11.762;2023-08-12T04:00:58;10.90;99.90
22161;DHT22;49035;48.812;11.762;2023-08-12T04:03:24;10.90;99.90
22161;DHT22;49035;48.812;11.762;2023-08-12T04:05:50;10.90;99.90
22161;DHT22;49035;48.812;11.762;2023-08-12T04:08:20;11.00;99.90
22161;DHT22;49035;48.812;11.762;2023-08-12T04:10:47;11.00;99.90
22161;DHT22;49035;48.812;11.762;2023-08-12T04:13:13;10.90;99.90
22161;DHT22;49035;48.812;11.762;2023-08-12T04:15:39;10.90;99.90
22161;DHT22;49035;48.812;11.762;2023-08-12T04:18:05;10.90;99.90
22161;DHT22;49035;48.812;11.762;2023-08-12T04:20:30;11.10;99.90
22161;DHT22;49035;48.812;11.762;2023-08-12T04:22:56;11.10;99.90
22161;DHT22;49035;48.812;11.762;2023-08-12T04:25:22;11.30;99.90
22161;DHT22;49035;48.812;11.762;2023-08-12T04:27:48;11.30;99.90
22161;DHT22;49035;48.812;11.762;2023-08-12T04:30:17;11.40;99.90
22161;DHT22;49035;48.812;11.762;2023-08-12T04:32:43;11.40;99.90
22161;DHT22;49035;48.812;11.762;2023-08-12T04:35:08;11.40;99.90
22161;DHT22;49035;48.812;11.762;2023-08-12T04:37:35;11.50;99.90
22161;DHT22;49035;48.812;11.762;2023-08-12T04:40:01;11.60;99.90
22161;DHT22;49035;48.812;11.762;2023-08-12T04:42:26;11.60;99.90
22161;DHT22;49035;48.812;11.762;2023-08-12T04:44:52;11.70;99.90
22161;DHT22;49035;48.812;11.762;2023-08-12T04:47:18;12.10;99.90
22161;DHT22;49035;48.812;11.762;2023-08-12T04:49:43;12.90;99.90
22161;DHT22;49035;48.812;11.762;2023-08-12T04:52:09;13.80;99.90
22161;DHT22;49035;48.812;11.762;2023-08-12T04:54:35;14.50;99.90
22161;DHT22;49035;48.812;11.762;2023-08-12T04:57:00;14.60;99.90
22161;DHT22;49035;48.812;11.762;2023-08-12T04:59:26;15.50;99.90
22161;DHT22;49035;48.812;11.762;2023-08-12T05:01:51;15.90;99.90
22161;DHT22;49035;48.812;11.762;2023-08-12T05:04:17;16.00;99.90
22161;DHT22;49035;48.812;11.762;2023-08-12T05:06:42;16.20;99.90
22161;DHT22;49035;48.812;11.762;2023-08-12T05:09:08;16.60;99.90
22161;DHT22;49035;48.812;11.762;2023-08-12T05:11:34;16.60;99.90
22161;DHT22;49035;48.812;11.762;2023-08-12T05:13:59;16.90;99.90
22161;DHT22;49035;48.812;11.762;2023-08-12T05:16:25;17.20;99.90
22161;DHT22;49035;48.812;11.762;2023-08-12T05:18:51;17.50;99.90
22161;DHT22;49035;48.812;11.762;2023-08-12T05:21:16;17.60;99.90
22161;DHT22;49035;48.812;11.762;2023-08-12T05:23:42;17.80;99.90
22161;DHT22;49035;48.812;11.762;2023-08-12T05:26:07;17.90;99.90
22161;DHT22;49035;48.812;11.762;2023-08-12T05:28:33;18.20;99.90
22161;DHT22;49035;48.812;11.762;2023-08-12T05:30:59;18.80;99.90
22161;DHT22;49035;48.812;11.762;2023-08-12T05:33:24;19.00;99.90
22161;DHT22;49035;48.812;11.762;2023-08-12T05:35:50;19.30;99.90
22161;DHT22;49035;48.812;11.762;2023-08-12T05:38:16;19.80;99.90
22161;DHT22;49035;48.812;11.762;2023-08-12T05:40:42;19.90;99.90
22161;DHT22;49035;48.812;11.762;2023-08-12T05:43:07;20.20;99.90
22161;DHT22;49035;48.812;11.762;2023-08-12T05:45:33;20.80;99.90
22161;DHT22;49035;48.812;11.762;2023-08-12T05:47:59;20.80;99.90
22161;DHT22;49035;48.812;11.762;2023-08-12T05:50:25;21.10;99.90
22161;DHT22;49035;48.812;11.762;2023-08-12T05:52:50;21.70;99.90
22161;DHT22;49035;48.812;11.762;2023-08-12T05:55:16;21.80;99.90
22161;DHT22;49035;48.812;11.762;2023-08-12T05:57:42;21.90;99.90
22161;DHT22;49035;48.812;11.762;2023-08-12T06:00:08;22.00;99.90
22161;DHT22;49035;48.812;11.762;2023-08-12T06:02:33;22.80;99.90
22161;DHT22;49035;48.812;11.762;2023-08-12T06:04:59;22.90;99.90
22161;DHT22;49035;48.812;11.762;2023-08-12T06:07:24;23.20;99.90
22161;DHT22;49035;48.812;11.762;2023-08-12T06:09:50;23.90;99.90
22161;DHT22;49035;48.812;11.762;2023-08-12T06:12:16;24.10;99.90
22161;DHT22;49035;48.812;11.762;2023-08-12T06:14:42;24.20;99.90
22161;DHT22;49035;48.812;11.762;2023-08-12T06:17:08;24.20;99.90
22161;DHT22;49035;48.812;11.762;2023-08-12T06:19:33;24.10;99.90
22161;DHT22;49035;48.812;11.762;2023-08-12T06:21:59;24.30;99.90
22161;DHT22;49035;48.812;11.762;2023-08-12T06:24:25;24.20;99.90
22161;DHT22;49035;48.812;11.762;2023-08-12T06:26:50;24.20;99.90
22161;DHT22;49035;48.812;11.762;2023-08-12T06:29:16;24.30;99.90
22161;DHT22;49035;48.812;11.762;2023-08-12T06:31:42;25.00;97.40
22161;DHT22;49035;48.812;11.762;2023-08-12T06:34:07;24.90;98.50
22161;DHT22;49035;48.812;11.762;2023-08-12T06:36:33;25.30;95.80
22161;DHT22;49035;48.812;11.762;2023-08-12T06:38:59;25.40;93.60
22161;DHT22;49035;48.812;11.762;2023-08-12T06:41:24;25.40;93.10
22161;DHT22;49035;48.812;11.762;2023-08-12T06:43:50;25.60;94.80
22161;DHT22;49035;48.812;11.762;2023-08-12T06:46:16;25.80;93.10
22161;DHT22;49035;48.812;11.762;2023-08-12T06:48:41;25.20;92.60
22161;DHT22;49035;48.812;11.762;2023-08-12T06:51:07;25.10;92.20
22161;DHT22;49035;48.812;11.762;2023-08-12T06:53:36;24.80;93.20
22161;DHT22;49035;48.812;11.762;2023-08-12T06:56:02;24.20;93.20
22161;DHT22;49035;48.812;11.762;2023-08-12T06:58:28;23.60;94.90
22161;DHT22;49035;48.812;11.762;2023-08-12T07:00:54;23.30;97.20
22161;DHT22;49035;48.812;11.762;2023-08-12T07:03:20;23.20;99.50
22161;DHT22;49035;48.812;11.762;2023-08-12T07:05:45;23.50;99.40
22161;DHT22;49035;48.812;11.762;2023-08-12T07:08:11;23.90;97.30
22161;DHT22;49035;48.812;11.762;2023-08-12T07:10:40;23.60;96.30
22161;DHT22;49035;48.812;11.762;2023-08-12T07:13:06;23.50;97.40
22161;DHT22;49035;48.812;11.762;2023-08-12T07:15:32;23.20;98.10
22161;DHT22;49035;48.812;11.762;2023-08-12T07:17:57;23.10;99.10
22161;DHT22;49035;48.812;11.762;2023-08-12T07:20:24;22.70;99.90
22161;DHT22;49035;48.812;11.762;2023-08-12T07:22:50;22.50;99.90
22161;DHT22;49035;48.812;11.762;2023-08-12T07:25:16;22.40;99.90
22161;DHT22;49035;48.812;11.762;2023-08-12T07:27:45;22.90;99.90
22161;DHT22;49035;48.812;11.762;2023-08-12T07:30:11;23.50;99.90
22161;DHT22;49035;48.812;11.762;2023-08-12T07:32:38;23.80;99.90
22161;DHT22;49035;48.812;11.762;2023-08-12T07:35:05;23.70;99.90
22161;DHT22;49035;48.812;11.762;2023-08-12T07:37:33;23.50;99.90
22161;DHT22;49035;48.812;11.762;2023-08-12T07:39:59;23.70;99.90
22161;DHT22;49035;48.812;11.762;2023-08-12T07:42:24;24.30;99.90
22161;DHT22;49035;48.812;11.762;2023-08-12T07:44:50;24.70;96.60
22161;DHT22;49035;48.812;11.762;2023-08-12T07:47:16;24.80;98.30
22161;DHT22;49035;48.812;11.762;2023-08-12T07:49:42;24.70;97.50
22161;DHT22;49035;48.812;11.762;2023-08-12T07:52:08;24.90;96.80
22161;DHT22;49035;48.812;11.762;2023-08-12T07:54:34;25.10;95.20
22161;DHT22;49035;48.812;11.762;2023-08-12T07:56:59;25.60;94.10
22161;DHT22;49035;48.812;11.762;2023-08-12T07:59:25;26.40;96.10
22161;DHT22;49035;48.812;11.762;2023-08-12T08:01:51;27.00;90.80
22161;DHT22;49035;48.812;11.762;2023-08-12T08:04:17;27.00;88.60
22161;DHT22;49035;48.812;11.762;2023-08-12T08:06:42;27.20;92.10
22161;DHT22;49035;48.812;11.762;2023-08-12T08:09:09;27.30;90.30
22161;DHT22;49035;48.812;11.762;2023-08-12T08:11:34;27.60;89.70
22161;DHT22;49035;48.812;11.762;2023-08-12T08:14:00;28.20;86.00
22161;DHT22;49035;48.812;11.762;2023-08-12T08:16:26;28.40;85.20
22161;DHT22;49035;48.812;11.762;2023-08-12T08:18:51;28.40;83.00
22161;DHT22;49035;48.812;11.762;2023-08-12T08:21:17;28.40;82.10
22161;DHT22;49035;48.812;11.762;2023-08-12T08:23:42;28.40;80.90
22161;DHT22;49035;48.812;11.762;2023-08-12T08:26:09;28.40;82.40
22161;DHT22;49035;48.812;11.762;2023-08-12T08:28:35;28.20;82.00
22161;DHT22;49035;48.812;11.762;2023-08-12T08:31:00;28.10;84.50
22161;DHT22;49035;48.812;11.762;2023-08-12T08:33:26;27.70;84.80
22161;DHT22;49035;48.812;11.762;2023-08-12T08:35:53;27.50;85.20
22161;DHT22;49035;48.812;11.762;2023-08-12T08:38:19;27.80;83.90
22161;DHT22;49035;48.812;11.762;2023-08-12T08:40:44;28.00;82.10
22161;DHT22;49035;48.812;11.762;2023-08-12T08:43:14;28.50;84.20
22161;DHT22;49035;48.812;11.762;2023-08-12T08:45:41;29.40;81.10
22161;DHT22;49035;48.812;11.762;2023-08-12T08:48:10;30.00;78.10
22161;DHT22;49035;48.812;11.762;2023-08-12T08:50:36;30.40;77.80
22161;DHT22;49035;48.812;11.762;2023-08-12T08:53:06;30.30;75.50
22161;DHT22;49035;48.812;11.762;2023-08-12T08:55:32;30.10;77.00
22161;DHT22;49035;48.812;11.762;2023-08-12T08:57:58;30.00;73.40
22161;DHT22;49035;48.812;11.762;2023-08-12T09:00:24;29.90;75.40
22161;DHT22;49035;48.812;11.762;2023-08-12T09:02:50;30.10;77.10
22161;DHT22;49035;48.812;11.762;2023-08-12T09:05:17;30.20;79.70
22161;DHT22;49035;48.812;11.762;2023-08-12T09:07:43;30.50;73.30
22161;DHT22;49035;48.812;11.762;2023-08-12T09:10:10;30.50;74.20
22161;DHT22;49035;48.812;11.762;2023-08-12T09:12:36;30.20;73.50
22161;DHT22;49035;48.812;11.762;2023-08-12T09:15:02;29.90;78.90
22161;DHT22;49035;48.812;11.762;2023-08-12T09:17:29;30.00;73.20
22161;DHT22;49035;48.812;11.762;2023-08-12T09:19:55;30.10;74.70
22161;DHT22;49035;48.812;11.762;2023-08-12T09:22:24;30.20;74.10
22161;DHT22;49035;48.812;11.762;2023-08-12T09:24:59;30.20;70.80
22161;DHT22;49035;48.812;11.762;2023-08-12T09:27:25;29.90;75.00
22161;DHT22;49035;48.812;11.762;2023-08-12T09:29:55;29.80;75.50
22161;DHT22;49035;48.812;11.762;2023-08-12T09:32:22;29.80;71.10
22161;DHT22;49035;48.812;11.762;2023-08-12T09:34:52;29.90;75.00
22161;DHT22;49035;48.812;11.762;2023-08-12T09:37:22;30.10;75.80
22161;DHT22;49035;48.812;11.762;2023-08-12T09:39:52;30.30;73.90
22161;DHT22;49035;48.812;11.762;2023-08-12T09:42:18;30.30;75.20
22161;DHT22;49035;48.812;11.762;2023-08-12T09:44:44;30.30;70.40
22161;DHT22;49035;48.812;11.762;2023-08-12T09:47:10;30.60;71.70
22161;DHT22;49035;48.812;11.762;2023-08-12T09:49:37;31.00;69.50
22161;DHT22;49035;48.812;11.762;2023-08-12T09:52:04;31.50;69.70
22161;DHT22;49035;48.812;11.762;2023-08-12T09:54:36;31.40;65.40
22161;DHT22;49035;48.812;11.762;2023-08-12T09:57:04;31.10;69.10
22161;DHT22;49035;48.812;11.762;2023-08-12T09:59:33;31.30;72.60
22161;DHT22;49035;48.812;11.762;2023-08-12T10:02:03;31.70;73.50
22161;DHT22;49035;48.812;11.762;2023-08-12T10:04:45;31.10;69.50
22161;DHT22;49035;48.812;11.762;2023-08-12T10:07:11;30.80;71.90
22161;DHT22;49035;48.812;11.762;2023-08-12T10:09:40;30.50;71.50
22161;DHT22;49035;48.812;11.762;2023-08-12T10:12:07;30.40;71.40
22161;DHT22;49035;48.812;11.762;2023-08-12T10:14:33;30.40;75.40
22161;DHT22;49035;48.812;11.762;2023-08-12T10:16:59;30.30;69.80
22161;DHT22;49035;48.812;11.762;2023-08-12T10:19:26;30.10;75.40
22161;DHT22;49035;48.812;11.762;2023-08-12T10:21:56;30.00;71.80
22161;DHT22;49035;48.812;11.762;2023-08-12T10:24:26;29.80;73.80
22161;DHT22;49035;48.812;11.762;2023-08-12T10:26:52;29.60;78.10
22161;DHT22;49035;48.812;11.762;2023-08-12T10:29:19;29.60;74.70
22161;DHT22;49035;48.812;11.762;2023-08-12T10:31:48;29.90;79.20
22161;DHT22;49035;48.812;11.762;2023-08-12T10:34:21;30.20;75.90
22161;DHT22;49035;48.812;11.762;2023-08-12T10:36:48;30.10;73.60
22161;DHT22;49035;48.812;11.762;2023-08-12T10:39:19;30.10;78.20
22161;DHT22;49035;48.812;11.762;2023-08-12T10:41:50;30.30;74.30
22161;DHT22;49035;48.812;11.762;2023-08-12T10:44:20;30.60;73.40
22161;DHT22;49035;48.812;11.762;2023-08-12T10:46:51;30.40;71.20
22161;DHT22;49035;48.812;11.762;2023-08-12T10:49:19;30.10;74.70
22161;DHT22;49035;48.812;11.762;2023-08-12T10:54:15;30.20;72.50
22161;DHT22;49035;48.812;11.762;2023-08-12T10:59:48;30.30;72.50
22161;DHT22;49035;48.812;11.762;2023-08-12T11:02:21;29.70;74.00
22161;DHT22;49035;48.812;11.762;2023-08-12T11:05:04;29.30;76.90
22161;DHT22;49035;48.812;11.762;2023-08-12T11:07:57;29.20;79.40
22161;DHT22;49035;48.812;11.762;2023-08-12T11:10:25;29.60;76.70
22161;DHT22;49035;48.812;11.762;2023-08-12T11:15:17;30.30;78.00
22161;DHT22;49035;48.812;11.762;2023-08-12T11:17:43;30.30;74.40
22161;DHT22;49035;48.812;11.762;2023-08-12T11:20:12;29.70;78.80
22161;DHT22;49035;48.812;11.762;2023-08-12T11:22:43;29.70;75.20
22161;DHT22;49035;48.812;11.762;2023-08-12T11:25:13;29.80;76.30
22161;DHT22;49035;48.812;11.762;2023-08-12T11:27:44;30.10;83.20
22161;DHT22;49035;48.812;11.762;2023-08-12T11:30:11;30.20;73.70
22161;DHT22;49035;48.812;11.762;2023-08-12T11:32:38;30.10;74.90
22161;DHT22;49035;48.812;11.762;2023-08-12T11:35:06;30.20;78.10
22161;DHT22;49035;48.812;11.762;2023-08-12T11:37:32;30.20;74.80
22161;DHT22;49035;48.812;11.762;2023-08-12T11:39:58;30.20;77.80
22161;DHT22;49035;48.812;11.762;2023-08-12T11:42:24;30.30;83.30
22161;DHT22;49035;48.812;11.762;2023-08-12T11:44:50;30.50;78.30
22161;DHT22;49035;48.812;11.762;2023-08-12T11:47:16;30.80;72.40
22161;DHT22;49035;48.812;11.762;2023-08-12T11:49:41;30.90;70.70
22161;DHT22;49035;48.812;11.762;2023-08-12T11:52:09;30.50;72.70
22161;DHT22;49035;48.812;11.762;2023-08-12T11:54:36;30.10;72.80
22161;DHT22;49035;48.812;11.762;2023-08-12T11:57:02;29.90;74.50
22161;DHT22;49035;48.812;11.762;2023-08-12T11:59:28;30.10;74.60
22161;DHT22;49035;48.812;11.762;2023-08-12T12:01:54;30.60;76.30
22161;DHT22;49035;48.812;11.762;2023-08-12T12:04:21;31.00;74.20
22161;DHT22;49035;48.812;11.762;2023-08-12T12:06:47;31.10;74.00
22161;DHT22;49035;48.812;11.762;2023-08-12T12:09:13;31.10;72.80
22161;DHT22;49035;48.812;11.762;2023-08-12T12:11:40;31.00;74.40
22161;DHT22;49035;48.812;11.762;2023-08-12T12:14:07;31.20;76.90
22161;DHT22;49035;48.812;11.762;2023-08-12T12:16:45;31.40;76.50
22161;DHT22;49035;48.812;11.762;2023-08-12T12:19:22;31.40;70.50
22161;DHT22;49035;48.812;11.762;2023-08-12T12:21:50;31.50;74.20
22161;DHT22;49035;48.812;11.762;2023-08-12T12:24:16;31.60;72.10
22161;DHT22;49035;48.812;11.762;2023-08-12T12:26:42;31.70;70.00
22161;DHT22;49035;48.812;11.762;2023-08-12T12:29:07;31.70;69.50
22161;DHT22;49035;48.812;11.762;2023-08-12T12:31:34;31.70;70.00
22161;DHT22;49035;48.812;11.762;2023-08-12T12:34:01;31.50;69.10
22161;DHT22;49035;48.812;11.762;2023-08-12T12:36:27;31.60;70.30
22161;DHT22;49035;48.812;11.762;2023-08-12T12:38:53;31.40;70.20
22161;DHT22;49035;48.812;11.762;2023-08-12T12:41:18;31.10;70.90
22161;DHT22;49035;48.812;11.762;2023-08-12T12:43:44;31.10;69.00
22161;DHT22;49035;48.812;11.762;2023-08-12T12:46:10;31.30;68.60
22161;DHT22;49035;48.812;11.762;2023-08-12T12:48:35;31.50;72.00
22161;DHT22;49035;48.812;11.762;2023-08-12T12:51:01;31.10;75.00
22161;DHT22;49035;48.812;11.762;2023-08-12T12:53:27;31.10;69.20
22161;DHT22;49035;48.812;11.762;2023-08-12T12:55:52;31.50;69.70
22161;DHT22;49035;48.812;11.762;2023-08-12T12:58:18;31.70;67.90
22161;DHT22;49035;48.812;11.762;2023-08-12T13:00:44;32.30;72.90
22161;DHT22;49035;48.812;11.762;2023-08-12T13:03:09;32.50;71.30
22161;DHT22;49035;48.812;11.762;2023-08-12T13:05:35;32.40;68.00
22161;DHT22;49035;48.812;11.762;2023-08-12T13:08:00;32.90;68.30
22161;DHT22;49035;48.812;11.762;2023-08-12T13:10:26;33.30;68.70
22161;DHT22;49035;48.812;11.762;2023-08-12T13:12:51;33.80;65.90
22161;DHT22;49035;48.812;11.762;2023-08-12T13:15:17;34.30;65.00
22161;DHT22;49035;48.812;11.762;2023-08-12T13:17:42;34.40;65.20
22161;DHT22;49035;48.812;11.762;2023-08-12T13:20:09;34.80;64.30
22161;DHT22;49035;48.812;11.762;2023-08-12T13:22:35;35.20;61.70
22161;DHT22;49035;48.812;11.762;2023-08-12T13:25:00;35.10;56.80
22161;DHT22;49035;48.812;11.762;2023-08-12T13:27:26;34.30;61.20
22161;DHT22;49035;48.812;11.762;2023-08-12T13:29:52;33.70;63.40
22161;DHT22;49035;48.812;11.762;2023-08-12T13:32:17;33.90;64.20
22161;DHT22;49035;48.812;11.762;2023-08-12T13:34:43;34.30;61.50
22161;DHT22;49035;48.812;11.762;2023-08-12T13:37:11;34.80;59.40
22161;DHT22;49035;48.812;11.762;2023-08-12T13:39:37;35.20;59.50
22161;DHT22;49035;48.812;11.762;2023-08-12T13:42:02;35.30;58.00
22161;DHT22;49035;48.812;11.762;2023-08-12T13:44:28;35.10;56.10
22161;DHT22;49035;48.812;11.762;2023-08-12T13:46:53;34.70;60.00
22161;DHT22;49035;48.812;11.762;2023-08-12T13:49:19;34.30;61.30
22161;DHT22;49035;48.812;11.762;2023-08-12T13:51:44;34.70;64.30
22161;DHT22;49035;48.812;11.762;2023-08-12T13:54:10;35.00;57.40
22161;DHT22;49035;48.812;11.762;2023-08-12T13:56:36;35.20;56.50
22161;DHT22;49035;48.812;11.762;2023-08-12T13:59:01;34.90;60.70
22161;DHT22;49035;48.812;11.762;2023-08-12T14:01:27;35.10;58.50
22161;DHT22;49035;48.812;11.762;2023-08-12T14:03:52;35.30;62.00
22161;DHT22;49035;48.812;11.762;2023-08-12T14:06:18;34.70;57.60
22161;DHT22;49035;48.812;11.762;2023-08-12T14:08:44;33.80;59.40
22161;DHT22;49035;48.812;11.762;2023-08-12T14:11:09;33.40;60.10
22161;DHT22;49035;48.812;11.762;2023-08-12T14:13:35;33.80;58.80
22161;DHT22;49035;48.812;11.762;2023-08-12T14:16:01;34.20;59.00
22161;DHT22;49035;48.812;11.762;2023-08-12T14:18:26;33.60;60.40
22161;DHT22;49035;48.812;11.762;2023-08-12T14:20:52;33.00;59.80
22161;DHT22;49035;48.812;11.762;2023-08-12T14:23:17;33.30;64.10
22161;DHT22;49035;48.812;11.762;2023-08-12T14:25:43;33.40;61.40
22161;DHT22;49035;48.812;11.762;2023-08-12T14:28:08;33.00;61.60
22161;DHT22;49035;48.812;11.762;2023-08-12T14:30:34;32.80;62.60
22161;DHT22;49035;48.812;11.762;2023-08-12T14:33:00;32.70;62.40
22161;DHT22;49035;48.812;11.762;2023-08-12T14:35:25;32.30;63.70
22161;DHT22;49035;48.812;11.762;2023-08-12T14:37:51;32.10;64.20
22161;DHT22;49035;48.812;11.762;2023-08-12T14:40:16;31.50;64.30
22161;DHT22;49035;48.812;11.762;2023-08-12T14:42:42;31.10;66.00
22161;DHT22;49035;48.812;11.762;2023-08-12T14:45:08;30.60;68.70
22161;DHT22;49035;48.812;11.762;2023-08-12T14:47:34;30.30;70.40
22161;DHT22;49035;48.812;11.762;2023-08-12T14:49:59;30.20;71.40
22161;DHT22;49035;48.812;11.762;2023-08-12T14:52:25;30.20;72.80
22161;DHT22;49035;48.812;11.762;2023-08-12T14:54:51;30.40;73.00
22161;DHT22;49035;48.812;11.762;2023-08-12T14:57:17;30.70;73.80
22161;DHT22;49035;48.812;11.762;2023-08-12T14:59:42;31.60;77.70
22161;DHT22;49035;48.812;11.762;2023-08-12T15:02:08;32.80;72.00
22161;DHT22;49035;48.812;11.762;2023-08-12T15:04:34;33.70;66.00
22161;DHT22;49035;48.812;11.762;2023-08-12T15:07:00;34.30;61.60
22161;DHT22;49035;48.812;11.762;2023-08-12T15:09:25;34.40;63.20
22161;DHT22;49035;48.812;11.762;2023-08-12T15:11:51;34.30;62.90
22161;DHT22;49035;48.812;11.762;2023-08-12T15:14:17;33.80;61.90
22161;DHT22;49035;48.812;11.762;2023-08-12T15:16:42;33.30;64.60
22161;DHT22;49035;48.812;11.762;2023-08-12T15:19:08;32.80;67.20
22161;DHT22;49035;48.812;11.762;2023-08-12T15:21:34;32.20;68.90
22161;DHT22;49035;48.812;11.762;2023-08-12T15:23:59;31.90;71.70